Time;durP1;ratioP1;P1;durP2;ratioP2;P2;SDS_P1;SDS_P2;PMS_P1;PMS_P2;Temp;Humidity;BMP_temperature;BMP_pressure;BME280_temperature;BME280_humidity;BME280_pressure;Samples;Min_cycle;Max_cycle;Signal;HPM_P1;HPM_P2
2022/11/09 00:02:05;;;;;;;13.02;4.80;;;;;;;2.27;100.00;95306.69;4988561;28;20063;-70
2022/11/09 00:04:31;;;;;;;11.27;5.32;;;;;;;2.32;100.00;95310.22;4991518;28;20038;-69
2022/11/09 00:06:56;;;;;;;8.18;4.40;;;;;;;2.22;100.00;95297.75;4990205;28;20046;-70
2022/11/09 00:09:22;;;;;;;10.93;4.63;;;;;;;2.18;100.00;95294.00;5001034;28;20050;-70
2022/11/09 00:11:47;;;;;;;9.68;4.18;;;;;;;2.17;100.00;95297.66;4996406;28;20438;-70
2022/11/09 00:14:16;;;;;;;10.05;4.68;;;;;;;2.22;100.00;95300.34;4990824;28;20392;-70
2022/11/09 00:16:42;;;;;;;9.48;4.10;;;;;;;2.23;100.00;95303.75;4971579;28;20570;-70
2022/11/09 00:19:08;;;;;;;15.23;4.40;;;;;;;2.19;100.00;95306.00;4983345;28;20055;-69
2022/11/09 00:21:33;;;;;;;9.05;3.88;;;;;;;2.13;100.00;95301.69;4991132;28;20125;-69
2022/11/09 00:23:59;;;;;;;9.82;4.30;;;;;;;2.11;100.00;95303.69;4980640;28;20109;-70
2022/11/09 00:26:25;;;;;;;7.88;4.30;;;;;;;2.06;100.00;95306.19;4978023;28;20134;-70
2022/11/09 00:28:51;;;;;;;11.93;4.22;;;;;;;1.99;100.00;95295.88;4986881;28;20049;-70
2022/11/09 00:31:21;;;;;;;9.45;4.15;;;;;;;1.95;100.00;95299.13;5002598;28;20042;-69
2022/11/09 00:33:51;;;;;;;10.88;4.28;;;;;;;2.00;100.00;95291.50;4988491;28;20554;-70
2022/11/09 00:36:18;;;;;;;9.13;3.70;;;;;;;2.02;100.00;95289.47;4991400;28;20443;-70
2022/11/09 00:38:48;;;;;;;9.15;3.80;;;;;;;2.04;100.00;95303.00;4986821;28;20058;-70
2022/11/09 00:41:14;;;;;;;10.60;4.28;;;;;;;1.93;100.00;95301.19;4991465;28;20557;-70
2022/11/09 00:43:40;;;;;;;9.90;4.57;;;;;;;1.90;100.00;95298.00;4981398;28;20050;-70
2022/11/09 00:46:06;;;;;;;15.38;4.63;;;;;;;1.82;100.00;95290.50;4989813;28;20042;-69
2022/11/09 00:48:32;;;;;;;8.35;4.15;;;;;;;1.80;100.00;95292.53;4981099;28;20097;-70
2022/11/09 00:50:59;;;;;;;10.27;4.30;;;;;;;1.92;100.00;95289.97;4999268;28;20050;-69
2022/11/09 00:53:25;;;;;;;9.60;4.00;;;;;;;1.94;100.00;95287.16;4990613;28;20459;-68
2022/11/09 00:55:55;;;;;;;8.40;3.63;;;;;;;1.76;100.00;95281.00;4983625;28;20057;-69
2022/11/09 00:58:21;;;;;;;12.93;3.65;;;;;;;1.77;100.00;95287.78;4970877;28;20710;-69
2022/11/09 01:00:47;;;;;;;7.60;3.40;;;;;;;1.79;100.00;95284.97;4990185;28;20057;-68
2022/11/09 01:03:12;;;;;;;7.78;3.80;;;;;;;1.69;100.00;95285.50;4991046;28;20503;-69
2022/11/09 01:05:41;;;;;;;6.95;3.60;;;;;;;1.78;100.00;95284.19;4982148;28;20047;-69
2022/11/09 01:08:06;;;;;;;9.93;3.45;;;;;;;1.74;100.00;95283.03;4990894;28;20492;-70
2022/11/09 01:10:33;;;;;;;12.63;3.72;;;;;;;1.65;100.00;95290.34;4990147;28;20058;-69
2022/11/09 01:12:58;;;;;;;11.25;3.60;;;;;;;1.69;100.00;95285.50;4995385;28;20105;-69
2022/11/09 01:15:24;;;;;;;7.05;3.40;;;;;;;1.69;100.00;95285.50;4993858;28;20757;-69
2022/11/09 01:17:50;;;;;;;7.55;3.40;;;;;;;1.64;100.00;95282.75;4997029;28;20129;-69
2022/11/09 01:20:16;;;;;;;11.45;3.40;;;;;;;1.65;100.00;95289.53;4994090;28;20129;-69
2022/11/09 01:22:41;;;;;;;6.70;3.40;;;;;;;1.65;100.00;95285.16;4989759;28;20059;-69
2022/11/09 01:25:08;;;;;;;7.68;3.00;;;;;;;1.65;100.00;95279.16;4978899;28;20526;-69
2022/11/09 01:27:34;;;;;;;7.10;3.10;;;;;;;1.62;100.00;95284.78;4974898;28;20046;-70
2022/11/09 01:29:59;;;;;;;9.00;3.60;;;;;;;1.57;100.00;95288.03;4998104;28;20039;-69
2022/11/09 01:32:25;;;;;;;8.45;3.35;;;;;;;1.51;100.00;95284.50;4992025;28;20046;-70
2022/11/09 01:34:50;;;;;;;7.28;3.50;;;;;;;1.58;100.00;95279.25;4996701;28;20038;-70
2022/11/09 01:37:16;;;;;;;8.52;3.65;;;;;;;1.53;100.00;95282.47;4988963;28;20054;-70
2022/11/09 01:39:41;;;;;;;7.40;3.15;;;;;;;1.50;100.00;95276.94;4984991;28;20117;-70
2022/11/09 01:42:07;;;;;;;10.23;3.53;;;;;;;1.45;100.00;95280.19;4988188;28;20076;-69
2022/11/09 01:44:37;;;;;;;8.30;3.20;;;;;;;1.39;100.00;95275.84;4985258;28;20047;-70
2022/11/09 01:47:16;;;;;;;5.97;3.20;;;;;;;1.36;100.00;95276.28;4972905;28;20062;-69
2022/11/09 01:49:48;;;;;;;6.13;3.17;;;;;;;1.35;100.00;95279.88;4992859;28;20046;-69
2022/11/09 01:52:24;;;;;;;9.95;3.10;;;;;;;1.33;100.00;95274.13;5001853;28;20349;-69
2022/11/09 01:55:08;;;;;;;6.00;3.17;;;;;;;1.32;100.00;95275.94;5002634;28;20088;-69
2022/11/09 01:57:41;;;;;;;7.70;2.70;;;;;;;1.35;100.00;95279.88;4997468;28;20046;-70
2022/11/09 02:00:10;;;;;;;9.70;3.22;;;;;;;1.28;100.00;95273.97;4986017;28;20411;-68
2022/11/09 02:02:39;;;;;;;5.72;3.00;;;;;;;1.25;100.00;95269.22;4971113;28;20074;-69
2022/11/09 02:05:09;;;;;;;7.65;3.13;;;;;;;1.29;100.00;95275.56;4985368;28;20423;-69
2022/11/09 02:07:36;;;;;;;5.25;3.00;;;;;;;1.27;100.00;95272.41;4984484;28;20043;-69
2022/11/09 02:10:10;;;;;;;6.80;2.88;;;;;;;1.31;100.00;95276.16;4986340;28;20589;-68
2022/11/09 02:12:35;;;;;;;6.90;3.13;;;;;;;1.29;100.00;95275.56;5010130;28;20462;-70
2022/11/09 02:15:04;;;;;;;11.85;3.55;;;;;;;1.26;100.00;95270.81;5005913;28;20050;-69
2022/11/09 02:17:30;;;;;;;7.88;3.42;;;;;;;1.24;100.00;95267.66;4982759;28;20058;-68
2022/11/09 02:19:59;;;;;;;6.45;3.25;;;;;;;1.24;100.00;95265.06;4987849;28;20046;-69
2022/11/09 02:22:25;;;;;;;7.15;3.40;;;;;;;1.27;100.00;95262.03;4993659;28;20092;-69
2022/11/09 02:24:51;;;;;;;5.65;3.15;;;;;;;1.15;100.00;95270.53;4975863;28;20491;-68
2022/11/09 02:27:17;;;;;;;7.07;2.88;;;;;;;1.11;100.00;95264.19;4993929;28;20094;-69
2022/11/09 02:29:46;;;;;;;7.43;3.28;;;;;;;1.08;100.00;95267.22;4997124;28;20054;-69
2022/11/09 02:32:16;;;;;;;6.18;2.85;;;;;;;0.99;100.00;95265.91;5008374;28;20415;-69
2022/11/09 02:34:41;;;;;;;7.63;3.00;;;;;;;1.06;100.00;95260.66;4977946;28;20055;-69
2022/11/09 02:37:07;;;;;;;7.25;3.35;;;;;;;1.10;100.00;95267.78;4991621;28;20447;-69
2022/11/09 02:39:33;;;;;;;7.35;3.40;;;;;;;1.06;100.00;95261.44;4987177;28;20046;-68
2022/11/09 02:42:04;;;;;;;7.55;3.25;;;;;;;1.04;100.00;95268.66;4985468;28;20424;-70
2022/11/09 02:44:35;;;;;;;8.77;3.20;;;;;;;1.01;100.00;95253.53;4977586;28;20109;-69
2022/11/09 02:47:00;;;;;;;6.03;2.92;;;;;;;1.08;100.00;95263.81;4992314;28;20077;-69
2022/11/09 02:49:26;;;;;;;6.55;3.10;;;;;;;0.98;100.00;95269.53;4993475;28;20037;-72
2022/11/09 02:51:52;;;;;;;6.38;2.97;;;;;;;0.97;100.00;95258.34;5000887;28;20047;-69
2022/11/09 02:54:17;;;;;;;6.03;3.10;;;;;;;1.01;100.00;95269.09;4985529;28;20034;-68
2022/11/09 02:56:43;;;;;;;6.03;2.95;;;;;;;1.00;100.00;95262.31;4973630;28;20058;-69
2022/11/09 02:59:08;;;;;;;7.22;3.67;;;;;;;1.02;100.00;95265.47;4985278;28;20049;-68
2022/11/09 03:01:34;;;;;;;6.40;2.95;;;;;;;1.03;100.00;95267.06;4992697;28;20070;-70
2022/11/09 03:03:59;;;;;;;6.72;3.30;;;;;;;0.98;100.00;95267.72;4992388;28;20042;-69
2022/11/09 03:06:33;;;;;;;7.75;3.13;;;;;;;0.96;100.00;95263.75;5003764;28;20037;-70
2022/11/09 03:09:09;;;;;;;9.27;3.88;;;;;;;1.03;100.00;95272.25;5005449;28;20049;-70
2022/11/09 03:11:37;;;;;;;7.28;3.85;;;;;;;1.02;100.00;95270.66;4999067;28;20045;-70
2022/11/09 03:14:03;;;;;;;9.55;3.45;;;;;;;1.12;100.00;95265.78;4983401;28;20427;-69
2022/11/09 03:16:28;;;;;;;7.35;3.15;;;;;;;1.08;100.00;95259.44;4989686;28;20046;-70
2022/11/09 03:18:55;;;;;;;9.15;3.22;;;;;;;1.06;100.00;95253.66;4962339;28;20055;-70
2022/11/09 03:21:21;;;;;;;5.18;2.80;;;;;;;1.08;100.00;95253.44;4972457;28;20043;-70
2022/11/09 03:23:48;;;;;;;8.93;3.20;;;;;;;1.08;100.00;95267.22;4983219;28;20057;-70
2022/11/09 03:26:13;;;;;;;7.25;3.17;;;;;;;1.02;100.00;95260.28;4995294;28;20738;-69
2022/11/09 03:28:40;;;;;;;5.18;2.80;;;;;;;1.02;100.00;95257.69;4979449;28;20093;-72
2022/11/09 03:31:06;;;;;;;6.45;3.10;;;;;;;1.00;100.00;95251.94;4989823;28;20046;-71
2022/11/09 03:33:31;;;;;;;10.27;3.20;;;;;;;0.99;100.00;95265.91;4976654;28;20038;-70
2022/11/09 03:35:57;;;;;;;7.10;3.22;;;;;;;0.98;100.00;95270.31;4976565;28;20086;-70
2022/11/09 03:38:23;;;;;;;5.03;2.80;;;;;;;0.94;100.00;95274.31;4973517;28;20066;-69
2022/11/09 03:40:48;;;;;;;5.20;2.70;;;;;;;0.93;100.00;95259.00;4981452;28;20691;-69
2022/11/09 03:43:13;;;;;;;7.45;3.55;;;;;;;0.94;100.00;95263.19;4981522;28;20046;-70
2022/11/09 03:45:39;;;;;;;5.65;3.10;;;;;;;0.98;100.00;95264.34;4990037;28;20514;-70
2022/11/09 03:48:05;;;;;;;6.25;3.03;;;;;;;1.04;100.00;95266.06;4986740;28;20532;-71
2022/11/09 03:50:33;;;;;;;5.93;2.85;;;;;;;1.03;100.00;95267.06;4975148;28;20038;-68
2022/11/09 03:52:59;;;;;;;5.22;3.13;;;;;;;1.00;100.00;95257.91;4988846;28;20069;-69
2022/11/09 03:55:25;;;;;;;7.22;2.97;;;;;;;1.05;100.00;95262.47;4976540;28;20508;-69
2022/11/09 03:57:51;;;;;;;7.03;2.80;;;;;;;1.07;100.00;95255.25;4981590;28;20049;-69
2022/11/09 04:00:19;;;;;;;5.93;3.53;;;;;;;1.09;100.00;95255.81;4978851;28;20492;-69
2022/11/09 04:02:45;;;;;;;7.90;2.95;;;;;;;1.08;100.00;95251.66;4983518;28;20643;-69
2022/11/09 04:05:11;;;;;;;7.80;2.90;;;;;;;1.14;100.00;95255.97;4988618;28;20038;-70
2022/11/09 04:07:37;;;;;;;10.15;3.22;;;;;;;1.12;100.00;95258.00;4991344;28;20412;-69
2022/11/09 04:10:04;;;;;;;6.80;3.17;;;;;;;1.10;100.00;95252.25;4989557;28;20050;-69
2022/11/09 04:12:30;;;;;;;7.25;3.15;;;;;;;1.14;100.00;95258.56;4980061;28;20504;-69
2022/11/09 04:14:55;;;;;;;9.15;3.13;;;;;;;1.11;100.00;95253.81;4984169;28;20038;-69
2022/11/09 04:17:21;;;;;;;7.78;3.08;;;;;;;1.19;100.00;95256.16;4980927;28;20046;-72
2022/11/09 04:19:46;;;;;;;6.63;2.97;;;;;;;1.14;100.00;95258.56;4983155;28;20070;-70
2022/11/09 04:22:12;;;;;;;4.90;2.70;;;;;;;1.15;100.00;95252.41;4991919;28;20113;-70
2022/11/09 04:24:37;;;;;;;7.85;2.90;;;;;;;1.19;100.00;95256.16;4986810;28;20088;-69
2022/11/09 04:27:03;;;;;;;10.02;3.20;;;;;;;1.14;100.00;95242.25;4980034;28;20129;-70
2022/11/09 04:29:29;;;;;;;7.70;2.92;;;;;;;1.13;100.00;95249.22;4982918;28;20101;-70
2022/11/09 04:31:54;;;;;;;6.55;3.10;;;;;;;1.20;100.00;95244.75;4991361;28;20089;-71
2022/11/09 04:34:20;;;;;;;7.32;3.15;;;;;;;1.21;100.00;95248.94;4981879;28;20058;-71
2022/11/09 04:36:45;;;;;;;6.80;2.92;;;;;;;1.23;100.00;95250.53;4973089;28;20046;-71
2022/11/09 04:39:11;;;;;;;6.15;2.90;;;;;;;1.28;100.00;95255.84;4978808;28;20045;-70
2022/11/09 04:41:37;;;;;;;7.38;3.10;;;;;;;1.31;100.00;95263.19;4989842;28;20046;-70
2022/11/09 04:44:02;;;;;;;6.97;2.90;;;;;;;1.34;100.00;95267.94;4978294;28;20038;-69
2022/11/09 04:46:28;;;;;;;5.75;2.65;;;;;;;1.32;100.00;95264.75;4979743;28;20130;-70
2022/11/09 04:48:54;;;;;;;5.07;2.80;;;;;;;1.33;100.00;95261.16;4983093;28;20046;-70
2022/11/09 04:51:20;;;;;;;8.77;2.83;;;;;;;1.32;100.00;95257.78;4988385;28;20034;-70
2022/11/09 04:53:45;;;;;;;6.93;3.05;;;;;;;1.36;100.00;95256.31;4983554;28;20043;-70
2022/11/09 04:56:11;;;;;;;5.88;2.90;;;;;;;1.35;100.00;95264.31;4981783;28;20420;-71
2022/11/09 04:58:37;;;;;;;10.38;3.03;;;;;;;1.30;100.00;95262.38;4971682;28;20054;-70
2022/11/09 05:01:03;;;;;;;9.50;3.17;;;;;;;1.33;100.00;95271.53;4994848;28;20096;-71
2022/11/09 05:03:29;;;;;;;7.13;3.30;;;;;;;1.35;100.00;95265.13;4998619;28;20562;-70
2022/11/09 05:05:54;;;;;;;7.88;3.20;;;;;;;1.36;100.00;95266.69;4983219;28;20043;-70
2022/11/09 05:08:20;;;;;;;5.70;2.90;;;;;;;1.36;100.00;95260.72;4984679;28;20065;-70
2022/11/09 05:10:45;;;;;;;7.63;2.80;;;;;;;1.39;100.00;95265.47;4987884;28;20042;-70
2022/11/09 05:13:12;;;;;;;8.35;2.75;;;;;;;1.40;100.00;95267.06;4987018;28;20038;-70
2022/11/09 05:15:38;;;;;;;6.93;2.83;;;;;;;1.43;100.00;95268.44;4987977;28;20138;-70
2022/11/09 05:18:05;;;;;;;6.57;3.10;;;;;;;1.40;100.00;95267.06;4978131;28;20072;-70
2022/11/09 05:20:31;;;;;;;6.05;3.20;;;;;;;1.45;100.00;95269.81;4985798;28;20412;-69
2022/11/09 05:25:43;;;;;;;6.32;3.17;;;;;;;1.36;100.00;95265.91;4974865;28;20270;-71
2022/11/09 05:28:09;;;;;;;5.72;3.00;;;;;;;1.34;100.00;95276.50;4986764;28;20038;-71
2022/11/09 05:30:34;;;;;;;7.32;2.78;;;;;;;1.31;100.00;95270.97;4971510;28;20061;-70
2022/11/09 05:33:00;;;;;;;7.20;2.88;;;;;;;1.31;100.00;95274.34;4974632;28;20038;-70
2022/11/09 05:35:25;;;;;;;7.63;3.03;;;;;;;1.29;100.00;95275.56;4970635;28;20043;-70
2022/11/09 05:37:51;;;;;;;6.28;2.92;;;;;;;1.22;100.00;95265.25;4975004;28;20427;-70
2022/11/09 05:40:18;;;;;;;8.48;2.78;;;;;;;1.28;100.00;95268.78;4977251;28;20038;-70
2022/11/09 05:42:44;;;;;;;12.80;3.17;;;;;;;1.25;100.00;95259.66;4973728;28;20583;-70
2022/11/09 05:45:13;;;;;;;7.28;3.10;;;;;;;1.36;100.00;95265.91;4987883;28;20042;-70
2022/11/09 05:47:40;;;;;;;7.65;3.10;;;;;;;1.33;100.00;95261.16;4982448;28;20043;-70
2022/11/09 05:50:08;;;;;;;6.40;3.00;;;;;;;1.31;100.00;95265.78;4993349;28;20130;-70
2022/11/09 05:52:33;;;;;;;6.18;2.95;;;;;;;1.35;100.00;95261.72;4976536;28;20054;-70
2022/11/09 05:54:59;;;;;;;7.05;3.50;;;;;;;1.36;100.00;95260.72;4993729;28;20515;-70
2022/11/09 05:57:26;;;;;;;6.88;3.10;;;;;;;1.41;100.00;95263.47;4975518;28;20458;-69
2022/11/09 05:59:51;;;;;;;8.77;3.28;;;;;;;1.35;100.00;95272.91;4993576;28;20034;-70
2022/11/09 06:02:17;;;;;;;6.78;3.22;;;;;;;1.38;100.00;95274.28;4976361;28;20097;-70
2022/11/09 06:04:42;;;;;;;7.07;2.90;;;;;;;1.41;100.00;95279.03;4984279;28;20511;-69
2022/11/09 06:07:08;;;;;;;6.45;3.20;;;;;;;1.28;100.00;95279.16;4987749;28;20097;-69
2022/11/09 06:09:34;;;;;;;9.48;3.10;;;;;;;1.27;100.00;95283.56;4990751;28;20043;-69
2022/11/09 06:11:59;;;;;;;6.78;3.25;;;;;;;1.35;100.00;95282.47;4979774;28;20415;-69
2022/11/09 06:14:25;;;;;;;6.35;2.90;;;;;;;1.40;100.00;95282.63;4988737;28;20049;-70
2022/11/09 06:16:50;;;;;;;7.45;3.30;;;;;;;1.46;100.00;95280.97;4980898;28;20416;-69
2022/11/09 06:19:16;;;;;;;8.68;3.13;;;;;;;1.53;100.00;95287.66;4999023;28;20034;-74
2022/11/09 06:21:41;;;;;;;9.23;3.47;;;;;;;1.69;100.00;95293.28;5011390;28;20069;-74
2022/11/09 06:24:07;;;;;;;9.95;3.58;;;;;;;1.80;100.00;95305.50;5007383;28;20046;-69
2022/11/09 06:26:32;;;;;;;9.80;3.80;;;;;;;1.98;100.00;95303.88;4986371;28;20046;-67
2022/11/09 06:28:58;;;;;;;8.13;3.72;;;;;;;1.90;100.00;95303.19;4992500;28;20046;-68
2022/11/09 06:31:23;;;;;;;8.73;3.85;;;;;;;1.98;100.00;95315.06;4992177;28;20176;-72
2022/11/09 06:33:49;;;;;;;7.13;3.40;;;;;;;2.18;100.00;95308.81;4985816;28;20050;-76
2022/11/09 06:36:15;;;;;;;8.57;4.00;;;;;;;2.19;100.00;95311.19;4979354;28;20046;-77
2022/11/09 06:38:41;;;;;;;8.57;3.45;;;;;;;2.32;100.00;95319.81;5003551;28;20039;-76
2022/11/09 06:41:08;;;;;;;7.28;3.50;;;;;;;2.42;100.00;95327.84;4996083;28;20099;-77
2022/11/09 06:43:34;;;;;;;7.78;3.33;;;;;;;2.67;100.00;95347.69;4992114;28;20126;-68
2022/11/09 06:46:02;;;;;;;8.27;3.72;;;;;;;3.08;100.00;95344.22;4999675;28;20042;-69
2022/11/09 06:48:28;;;;;;;7.65;3.40;;;;;;;3.16;100.00;95358.72;4980971;28;20101;-69
2022/11/09 06:50:58;;;;;;;8.60;4.20;;;;;;;3.39;100.00;95370.13;4979698;28;20104;-68
2022/11/09 06:53:26;;;;;;;10.00;4.25;;;;;;;3.76;100.00;95382.88;4983278;28;20046;-69
2022/11/09 06:55:52;;;;;;;13.98;4.18;;;;;;;3.80;100.00;95382.16;4986452;28;20420;-67
2022/11/09 06:58:18;;;;;;;9.73;4.28;;;;;;;3.85;100.00;95391.91;4999034;28;20034;-68
2022/11/09 07:00:44;;;;;;;13.23;4.95;;;;;;;4.20;100.00;95396.25;4994808;28;20054;-68
2022/11/09 07:03:15;;;;;;;20.90;4.15;;;;;;;4.52;100.00;95403.59;4983577;28;20050;-68
2022/11/09 07:05:41;;;;;;;14.65;3.83;;;;;;;5.09;100.00;95412.38;4978869;28;20448;-68
2022/11/09 07:08:06;;;;;;;8.57;3.25;;;;;;;5.76;100.00;95410.75;4981427;28;20039;-68
2022/11/09 07:10:32;;;;;;;8.13;4.00;;;;;;;5.99;100.00;95410.56;4981729;28;20057;-67
2022/11/09 07:12:58;;;;;;;10.65;2.83;;;;;;;6.09;100.00;95424.78;4980726;28;20057;-69
2022/11/09 07:15:24;;;;;;;5.30;2.60;;;;;;;6.28;100.00;95423.44;4995289;28;20049;-67
2022/11/09 07:17:49;;;;;;;4.30;2.10;;;;;;;6.34;100.00;95430.31;4995689;28;20050;-67
2022/11/09 07:20:15;;;;;;;4.55;2.35;;;;;;;6.47;100.00;95436.22;4992044;28;20054;-70
2022/11/09 07:22:41;;;;;;;5.97;2.13;;;;;;;6.55;100.00;95435.75;4992172;28;20034;-67
2022/11/09 07:25:08;;;;;;;10.65;2.50;;;;;;;6.62;100.00;95438.97;4990956;28;20054;-68
2022/11/09 07:27:34;;;;;;;5.85;2.10;;;;;;;6.83;100.00;95431.34;4990159;28;20411;-68
2022/11/09 07:29:59;;;;;;;5.78;1.98;;;;;;;6.84;100.00;95425.06;4991535;28;20049;-68
2022/11/09 07:32:25;;;;;;;4.78;1.98;;;;;;;6.60;100.00;95430.59;4990188;28;20065;-67
2022/11/09 07:34:50;;;;;;;7.57;2.38;;;;;;;6.46;100.00;95413.72;4980048;28;20066;-67
2022/11/09 07:37:16;;;;;;;4.88;2.03;;;;;;;6.15;100.00;95418.56;4979245;28;20046;-68
2022/11/09 07:39:42;;;;;;;4.93;2.00;;;;;;;6.05;100.00;95422.66;4982417;28;20065;-68
2022/11/09 07:42:07;;;;;;;4.18;2.15;;;;;;;5.96;100.00;95416.25;4986804;28;20500;-68
2022/11/09 07:44:33;;;;;;;4.13;2.00;;;;;;;5.83;100.00;95413.97;4992546;28;20062;-68
2022/11/09 07:46:58;;;;;;;9.27;2.40;;;;;;;5.79;100.00;95415.47;4986457;28;20050;-66
2022/11/09 07:49:24;;;;;;;8.82;2.50;;;;;;;5.81;100.00;95411.59;4991734;28;20047;-68
2022/11/09 07:51:49;;;;;;;7.68;2.53;;;;;;;5.75;100.00;95415.19;4991677;28;20475;-69
2022/11/09 07:54:15;;;;;;;4.93;2.40;;;;;;;5.73;100.00;95414.63;4991567;28;20038;-68
2022/11/09 07:56:40;;;;;;;6.22;2.28;;;;;;;5.71;100.00;95409.63;4987982;28;20046;-68
2022/11/09 07:59:06;;;;;;;10.18;2.15;;;;;;;5.80;100.00;95411.84;4991165;28;20073;-66
2022/11/09 08:01:31;;;;;;;4.70;2.30;;;;;;;5.92;100.00;95414.34;4990538;28;20081;-67
2022/11/09 08:03:57;;;;;;;7.80;2.20;;;;;;;6.03;100.00;95422.13;4980594;28;20039;-66
2022/11/09 08:06:26;;;;;;;7.40;2.15;;;;;;;6.03;100.00;95421.31;4979294;28;20046;-67
2022/11/09 08:08:54;;;;;;;4.35;2.20;;;;;;;6.12;100.00;95424.28;4971468;28;20041;-66
2022/11/09 08:11:19;;;;;;;3.13;1.90;;;;;;;6.22;100.00;95420.00;4988559;28;20607;-66
2022/11/09 08:13:45;;;;;;;3.60;2.00;;;;;;;6.40;100.00;95425.94;4989151;28;20050;-66
2022/11/09 08:16:11;;;;;;;3.55;1.90;;;;;;;6.66;100.00;95432.22;4988565;28;20523;-67
2022/11/09 08:18:36;;;;;;;7.20;2.58;;;;;;;6.91;100.00;95430.88;4980419;28;20046;-67
2022/11/09 08:21:03;;;;;;;4.25;1.90;;;;;;;7.23;100.00;95433.53;4991385;28;20100;-67
2022/11/09 08:23:29;;;;;;;5.07;1.95;;;;;;;7.32;100.00;95431.25;4986719;28;20051;-67
2022/11/09 08:25:55;;;;;;;10.05;2.08;;;;;;;7.48;100.00;95423.50;4983990;28;20496;-67
2022/11/09 08:28:21;;;;;;;3.40;1.75;;;;;;;7.59;100.00;95430.41;4984500;28;20038;-67
2022/11/09 08:30:56;;;;;;;2.78;1.60;;;;;;;7.79;100.00;95434.97;4990236;28;20129;-67
2022/11/09 08:33:22;;;;;;;3.85;1.58;;;;;;;7.97;100.00;95436.38;4990402;28;20085;-66
2022/11/09 08:35:48;;;;;;;3.47;1.80;;;;;;;8.41;100.00;95441.28;4980122;28;20038;-67
2022/11/09 08:38:13;;;;;;;3.28;1.90;;;;;;;8.74;100.00;95444.56;4987962;28;20101;-67
2022/11/09 08:40:39;;;;;;;4.10;1.77;;;;;;;8.91;100.00;95436.47;4990287;28;20489;-67
2022/11/09 08:43:06;;;;;;;3.00;1.73;;;;;;;8.95;100.00;95434.13;4984178;28;20054;-68
2022/11/09 08:45:34;;;;;;;3.70;1.90;;;;;;;8.99;100.00;95440.41;4985632;28;20070;-67
2022/11/09 08:48:01;;;;;;;3.55;1.73;;;;;;;9.26;100.00;95442.03;4985663;28;20463;-67
2022/11/09 08:50:28;;;;;;;4.47;2.17;;;;;;;9.28;100.00;95439.91;4990907;28;20050;-67
2022/11/09 08:52:54;;;;;;;6.22;2.63;;;;;;;9.35;100.00;95454.38;4989013;28;20054;-67
2022/11/09 08:55:20;;;;;;;5.13;1.98;;;;;;;9.64;100.00;95450.41;4986967;28;20393;-67
2022/11/09 08:57:46;;;;;;;3.28;1.67;;;;;;;9.78;100.00;95445.41;4990179;28;20425;-67
2022/11/09 09:00:12;;;;;;;3.83;1.55;;;;;;;9.92;100.00;95450.91;4995151;28;20046;-67
2022/11/09 09:02:37;;;;;;;3.15;1.70;;;;;;;10.18;100.00;95452.41;4983826;28;20042;-67
2022/11/09 09:05:03;;;;;;;2.97;1.83;;;;;;;10.05;100.00;95455.63;4998523;28;20064;-66
2022/11/09 09:07:29;;;;;;;3.95;1.83;;;;;;;10.02;100.00;95458.78;4975823;28;20054;-67
2022/11/09 09:09:55;;;;;;;3.42;1.63;;;;;;;9.93;100.00;95447.22;4987264;28;20058;-67
2022/11/09 09:12:20;;;;;;;4.30;1.88;;;;;;;9.86;100.00;95447.50;4973877;28;20652;-67
2022/11/09 09:14:46;;;;;;;4.45;1.52;;;;;;;9.85;100.00;95451.97;4990551;28;20054;-67
2022/11/09 09:17:12;;;;;;;3.67;1.83;;;;;;;9.60;100.00;95452.03;4982045;28;20624;-67
2022/11/09 09:19:37;;;;;;;5.30;1.85;;;;;;;9.79;100.00;95454.88;4985155;28;20046;-67
2022/11/09 09:22:03;;;;;;;4.38;1.73;;;;;;;10.12;100.00;95471.91;4989911;28;20413;-67
2022/11/09 09:24:29;;;;;;;4.68;2.00;;;;;;;10.49;100.00;95462.09;4990488;28;20432;-67
2022/11/09 09:26:54;;;;;;;2.85;1.60;;;;;;;10.58;100.00;95457.84;4975662;28;20054;-67
2022/11/09 09:29:20;;;;;;;4.15;1.95;;;;;;;10.54;100.00;95462.88;4987670;28;20079;-67
2022/11/09 09:31:45;;;;;;;3.25;1.80;;;;;;;10.84;100.00;95465.59;4990892;28;20492;-67
2022/11/09 09:34:11;;;;;;;3.58;1.63;;;;;;;11.09;100.00;95472.56;4988778;28;20053;-67
2022/11/09 09:36:37;;;;;;;2.58;1.52;;;;;;;11.35;100.00;95464.50;4981235;28;20053;-67
2022/11/09 09:39:03;;;;;;;4.90;1.80;;;;;;;11.41;100.00;95464.19;4989951;28;20064;-67
2022/11/09 09:41:36;;;;;;;3.70;2.20;;;;;;;11.34;100.00;95457.66;4989982;28;20050;-67
2022/11/09 09:44:21;;;;;;;3.33;1.73;;;;;;;11.39;100.00;95452.34;4983689;28;20468;-67
2022/11/09 09:47:08;;;;;;;2.63;1.60;;;;;;;11.53;100.00;95455.91;4998871;28;20047;-67
2022/11/09 09:49:38;;;;;;;3.20;1.65;;;;;;;11.29;100.00;95460.31;4976354;28;20053;-67
2022/11/09 09:52:31;;;;;;;3.08;1.70;;;;;;;11.30;100.00;95460.06;4990137;28;20050;-66
2022/11/09 09:55:15;;;;;;;4.45;1.80;;;;;;;11.48;100.00;95461.25;4971109;28;20407;-67
2022/11/09 09:57:46;;;;;;;2.80;1.60;;;;;;;11.43;100.00;95461.28;4986007;28;20046;-68
2022/11/09 10:00:20;;;;;;;2.40;1.50;;;;;;;11.49;100.00;95449.63;4977290;28;20070;-66
2022/11/09 10:02:46;;;;;;;3.53;1.85;;;;;;;11.77;100.00;95449.94;4984411;28;20156;-66
2022/11/09 10:05:14;;;;;;;5.60;1.60;;;;;;;12.20;100.00;95463.25;4986482;28;20050;-66
2022/11/09 10:07:49;;;;;;;3.05;1.50;;;;;;;12.47;100.00;95452.13;4989050;28;20046;-66
2022/11/09 10:10:43;;;;;;;2.60;1.52;;;;;;;12.40;100.00;95450.91;4990129;28;20543;-66
2022/11/09 10:13:27;;;;;;;2.63;1.67;;;;;;;12.41;100.00;95458.53;4977619;28;20136;-66
2022/11/09 10:16:14;;;;;;;2.57;1.40;;;;;;;12.57;95.72;95461.78;4988697;28;20451;-66
2022/11/09 10:18:56;;;;;;;3.03;1.50;;;;;;;12.50;96.28;95456.06;4985026;28;20058;-66
2022/11/09 10:21:38;;;;;;;2.53;1.42;;;;;;;12.48;97.12;95452.91;4989716;28;20101;-67
2022/11/09 10:24:21;;;;;;;2.83;1.60;;;;;;;12.44;100.00;95446.59;4984126;28;20061;-66
2022/11/09 10:26:50;;;;;;;3.47;1.45;;;;;;;12.49;99.16;95446.56;4988205;28;20053;-67
2022/11/09 10:29:21;;;;;;;2.80;1.67;;;;;;;12.54;100.00;95435.94;4985151;28;20050;-66
2022/11/09 10:31:50;;;;;;;3.17;1.38;;;;;;;12.48;94.01;95437.88;4982709;28;20468;-67
2022/11/09 10:34:26;;;;;;;2.97;1.60;;;;;;;12.69;94.86;95432.31;4989408;28;20050;-66
2022/11/09 10:37:23;;;;;;;3.25;1.65;;;;;;;12.62;93.83;95437.94;4991192;28;20046;-66
2022/11/09 10:39:54;;;;;;;3.33;1.40;;;;;;;12.45;91.51;95435.00;4993545;28;20397;-66
2022/11/09 10:42:19;;;;;;;3.50;1.75;;;;;;;12.53;93.91;95434.38;5000694;28;20084;-66
2022/11/09 10:44:45;;;;;;;2.55;1.60;;;;;;;12.70;94.03;95425.16;4999139;28;20046;-65
2022/11/09 10:47:12;;;;;;;3.58;1.65;;;;;;;12.76;95.19;95424.06;4990999;28;20463;-66
2022/11/09 10:49:39;;;;;;;6.53;1.75;;;;;;;12.70;89.60;95420.69;4985693;28;20054;-66
2022/11/09 10:52:38;;;;;;;2.90;1.60;;;;;;;12.91;92.50;95413.25;4992140;28;20046;-65
2022/11/09 10:55:27;;;;;;;3.15;1.75;;;;;;;13.11;94.70;95406.88;4984408;28;20053;-74
2022/11/09 10:57:55;;;;;;;3.55;1.65;;;;;;;13.58;100.00;95409.63;4988071;28;20111;-70
2022/11/09 11:00:21;;;;;;;4.32;1.80;;;;;;;14.71;76.60;95402.22;4983436;28;20047;-67
2022/11/09 11:02:48;;;;;;;3.13;1.63;;;;;;;16.45;71.06;95409.63;4994683;28;20065;-66
2022/11/09 11:05:17;;;;;;;4.15;1.48;;;;;;;18.27;70.14;95400.22;4989774;28;20073;-70
2022/11/09 11:07:43;;;;;;;3.47;1.60;;;;;;;19.65;64.02;95391.53;4980815;28;20089;-69
2022/11/09 11:10:19;;;;;;;2.75;1.70;;;;;;;18.42;57.81;95402.34;4993508;28;20058;-69
2022/11/09 11:12:56;;;;;;;3.60;1.73;;;;;;;20.38;64.46;95394.59;4973750;28;20583;-68
2022/11/09 11:15:23;;;;;;;2.72;1.77;;;;;;;20.19;49.41;95392.50;4979563;28;20046;-68
2022/11/09 11:17:49;;;;;;;2.42;1.60;;;;;;;20.41;53.38;95385.91;4990233;28;20150;-68
2022/11/09 11:20:31;;;;;;;3.17;1.92;;;;;;;19.90;48.55;95381.69;4992999;28;20057;-69
2022/11/09 11:23:17;;;;;;;3.42;1.65;;;;;;;20.14;50.96;95382.81;4988699;28;20393;-69
2022/11/09 11:25:51;;;;;;;3.97;1.85;;;;;;;19.79;52.02;95364.53;4992739;28;20121;-69
2022/11/09 11:28:25;;;;;;;3.63;1.60;;;;;;;20.09;48.15;95367.00;4988951;28;20050;-70
2022/11/09 11:30:51;;;;;;;4.22;1.90;;;;;;;19.30;50.02;95361.72;4990221;28;20054;-69
2022/11/09 11:33:20;;;;;;;5.32;1.80;;;;;;;18.45;52.80;95380.38;4976428;28;20120;-69
2022/11/09 11:36:18;;;;;;;2.70;1.52;;;;;;;19.34;55.05;95368.75;4972734;28;20061;-70
2022/11/09 11:38:56;;;;;;;3.10;1.55;;;;;;;19.98;54.00;95361.31;4991401;28;20050;-71